createdAt,value
2019-04-10T00:01:37.336Z,100457.41
2019-04-10T00:04:07.114Z,100454.17
2019-04-10T00:06:37.590Z,100455.40
2019-04-10T00:09:08.475Z,100449.89
2019-04-10T00:11:37.928Z,100449.05
2019-04-10T00:14:08.288Z,100446.29
2019-04-10T00:16:38.323Z,100450.80
2019-04-10T00:19:08.707Z,100452.61
2019-04-10T00:21:38.176Z,100451.31
2019-04-10T00:24:08.041Z,100455.04
2019-04-10T00:26:37.717Z,100446.45
2019-04-10T00:29:07.769Z,100448.50
2019-04-10T00:31:38.142Z,100450.91
2019-04-10T00:34:07.745Z,100448.73
2019-04-10T00:36:37.359Z,100446.88
2019-04-10T00:39:08.679Z,100447.56
2019-04-10T00:41:38.588Z,100442.32
2019-04-10T00:44:08.037Z,100445.86
2019-04-10T00:46:37.982Z,100453.98
2019-04-10T00:49:07.417Z,100451.75
2019-04-10T00:51:36.707Z,100459.88
2019-04-10T00:54:06.042Z,100457.02
2019-04-10T00:56:35.343Z,100457.70
2019-04-10T00:59:05.909Z,100458.34
2019-04-10T01:01:36.144Z,100463.00
2019-04-10T01:04:06.925Z,100458.34
2019-04-10T01:06:36.493Z,100455.19
2019-04-10T01:09:08.984Z,100453.69
2019-04-10T01:11:39.239Z,100452.56
2019-04-10T01:14:09.634Z,100449.92
2019-04-10T01:16:39.772Z,100449.89
2019-04-10T01:19:09.983Z,100453.45
2019-04-10T01:21:39.412Z,100451.02
2019-04-10T01:24:09.073Z,100448.59
2019-04-10T01:26:39.128Z,100449.02
2019-04-10T01:29:09.258Z,100447.70
2019-04-10T01:31:39.407Z,100449.08
2019-04-10T01:34:09.432Z,100451.30
2019-04-10T01:36:39.487Z,100452.53
2019-04-10T01:39:10.945Z,100447.78
2019-04-10T01:41:40.489Z,100446.70
2019-04-10T01:44:09.802Z,100453.51
2019-04-10T01:46:40.225Z,100454.08
2019-04-10T01:49:09.690Z,100456.50
2019-04-10T01:51:39.354Z,100456.05
2019-04-10T01:54:09.105Z,100457.70
2019-04-10T01:56:38.432Z,100453.79
2019-04-10T01:59:07.802Z,100454.04
2019-04-10T02:01:41.408Z,100459.86
2019-04-10T02:04:10.923Z,100456.12
2019-04-10T02:06:41.226Z,100462.89
2019-04-10T02:09:11.058Z,100462.52
2019-04-10T02:11:40.386Z,100464.35
2019-04-10T02:14:09.742Z,100464.35
2019-04-10T02:16:39.128Z,100464.06
2019-04-10T02:19:08.433Z,100465.16
2019-04-10T02:21:38.080Z,100460.95
2019-04-10T02:24:07.693Z,100458.67
2019-04-10T02:26:38.064Z,100458.09
2019-04-10T02:29:07.810Z,100452.46
2019-04-10T02:31:38.912Z,100464.34
2019-04-10T02:34:09.371Z,100460.64
2019-04-10T02:36:39.150Z,100460.64
2019-04-10T02:39:20.554Z,100457.66
2019-04-10T02:41:39.411Z,100454.39
2019-04-10T02:44:09.969Z,100454.39
2019-04-10T02:46:41.282Z,100460.45
2019-04-10T02:49:12.323Z,100469.69
2019-04-10T02:51:43.189Z,100464.17
2019-04-10T02:54:13.638Z,100468.06
2019-04-10T02:56:45.570Z,100470.63
2019-04-10T02:59:15.501Z,100465.92
2019-04-10T03:01:45.507Z,100466.70
2019-04-10T03:04:16.471Z,100459.31
2019-04-10T03:06:47.151Z,100462.95
2019-04-10T03:09:32.486Z,100461.86
2019-04-10T03:11:47.829Z,100465.31
2019-04-10T03:14:18.778Z,100465.80
2019-04-10T03:16:48.181Z,100470.59
2019-04-10T03:19:17.473Z,100475.98
2019-04-10T03:21:47.138Z,100479.36
2019-04-10T03:24:16.820Z,100468.57
2019-04-10T03:26:46.235Z,100472.14
2019-04-10T03:29:15.750Z,100473.77
2019-04-10T03:31:47.084Z,100478.94
2019-04-10T03:34:20.777Z,100480.62
2019-04-10T03:36:49.652Z,100481.06
2019-04-10T03:39:19.527Z,100482.75
2019-04-10T03:41:48.864Z,100481.44
2019-04-10T03:44:18.727Z,100475.97
2019-04-10T03:46:49.033Z,100476.20
2019-04-10T03:49:18.692Z,100479.94
2019-04-10T03:51:49.123Z,100477.43
2019-04-10T03:54:18.796Z,100482.57
2019-04-10T03:56:48.156Z,100480.02
2019-04-10T03:59:17.468Z,100482.30
2019-04-10T04:01:47.220Z,100480.77
2019-04-10T04:04:17.497Z,100490.81
2019-04-10T04:06:47.958Z,100491.58
2019-04-10T04:09:17.745Z,100494.33
2019-04-10T04:11:47.938Z,100496.00
2019-04-10T04:14:17.603Z,100500.53
2019-04-10T04:16:47.127Z,100501.02
2019-04-10T04:19:16.464Z,100503.30
2019-04-10T04:21:46.055Z,100500.66
2019-04-10T04:24:15.660Z,100504.74
2019-04-10T04:26:44.920Z,100503.53
2019-04-10T04:29:14.432Z,100507.49
2019-04-10T04:31:44.155Z,100508.44
2019-04-10T04:34:14.230Z,100514.53
2019-04-10T04:36:43.813Z,100517.91
2019-04-10T04:39:21.668Z,100519.83
2019-04-10T04:41:44.389Z,100514.78
2019-04-10T04:44:14.617Z,100524.50
2019-04-10T04:46:44.984Z,100526.88
2019-04-10T04:49:15.655Z,100527.20
2019-04-10T04:51:45.695Z,100527.20
2019-04-10T04:54:15.178Z,100530.45
2019-04-10T04:56:44.625Z,100535.82
2019-04-10T04:59:14.189Z,100495.13
2019-04-10T05:01:44.783Z,100535.42
2019-04-10T05:04:15.183Z,100540.98
2019-04-10T05:06:45.838Z,100556.89
2019-04-10T05:09:27.404Z,100560.16
2019-04-10T05:11:46.875Z,100562.04
2019-04-10T05:14:17.387Z,100561.05
2019-04-10T05:16:47.810Z,100561.05
2019-04-10T05:19:17.438Z,100567.05
2019-04-10T05:21:47.675Z,100568.84
2019-04-10T05:24:17.851Z,100582.87
2019-04-10T05:26:47.355Z,100587.01
2019-04-10T05:29:18.066Z,100585.59
2019-04-10T05:31:47.668Z,100590.39
2019-04-10T05:34:17.797Z,100597.19
2019-04-10T05:36:47.557Z,100597.09
2019-04-10T05:39:16.939Z,100597.09
2019-04-10T05:41:47.101Z,100606.87
2019-04-10T05:44:17.980Z,100606.87
2019-04-10T05:46:47.855Z,100608.43
2019-04-10T05:49:17.235Z,100603.16
2019-04-10T05:51:47.916Z,100608.19
2019-04-10T05:54:17.501Z,100613.34
2019-04-10T05:56:47.490Z,100607.97
2019-04-10T05:59:16.804Z,100612.67
2019-04-10T06:01:46.146Z,100612.99
2019-04-10T06:04:16.825Z,100609.08
2019-04-10T06:06:46.543Z,100619.22
2019-04-10T06:09:16.362Z,100615.55
2019-04-10T06:11:47.247Z,100614.13
2019-04-10T06:14:17.789Z,100620.72
2019-04-10T06:16:47.250Z,100620.72
2019-04-10T06:19:17.791Z,100616.51
2019-04-10T06:21:48.193Z,100622.52
2019-04-10T06:24:18.335Z,100620.95
2019-04-10T06:26:48.207Z,100627.55
2019-04-10T06:29:19.095Z,100627.55
2019-04-10T06:31:49.341Z,100626.94
2019-04-10T06:34:18.960Z,100623.09
2019-04-10T06:36:49.445Z,100620.22
2019-04-10T06:39:19.027Z,100620.22
2019-04-10T06:41:48.764Z,100618.17
2019-04-10T06:44:19.552Z,100623.20
2019-04-10T06:46:49.068Z,100625.77
2019-04-10T06:49:18.691Z,100622.74
2019-04-10T06:51:49.308Z,100622.74
2019-04-10T06:54:20.510Z,100617.50
2019-04-10T06:56:50.330Z,100616.44
2019-04-10T06:59:19.828Z,100616.64
2019-04-10T07:01:54.557Z,100616.64
2019-04-10T07:04:24.208Z,100621.16
2019-04-10T07:06:59.758Z,100616.22
2019-04-10T07:09:26.231Z,100618.55
2019-04-10T07:11:58.509Z,100613.27
2019-04-10T07:14:26.801Z,100617.87
2019-04-10T07:17:00.739Z,100624.09
2019-04-10T07:19:28.240Z,100625.83
2019-04-10T07:22:00.174Z,100634.31
2019-04-10T07:24:29.241Z,100627.64
2019-04-10T07:27:03.305Z,100625.13
2019-04-10T07:29:30.813Z,100628.98
2019-04-10T07:32:00.539Z,100628.75
2019-04-10T07:34:30.064Z,100635.09
2019-04-10T07:37:00.211Z,100634.13
2019-04-10T07:39:32.535Z,100643.17
2019-04-10T07:42:00.696Z,100639.29
2019-04-10T07:44:30.004Z,100640.08
2019-04-10T07:47:00.747Z,100641.46
2019-04-10T07:49:31.344Z,100651.45
2019-04-10T07:52:02.489Z,100644.61
2019-04-10T07:54:33.046Z,100651.83
2019-04-10T07:57:02.697Z,100647.28
2019-04-10T07:59:31.989Z,100649.62
2019-04-10T08:02:02.400Z,100645.12
2019-04-10T08:04:33.141Z,100639.91
2019-04-10T08:07:03.096Z,100649.28
2019-04-10T08:09:33.467Z,100656.22
2019-04-10T08:12:03.142Z,100661.11
2019-04-10T08:14:32.708Z,100661.74
2019-04-10T08:17:02.378Z,100659.88
2019-04-10T08:19:32.742Z,100653.50
2019-04-10T08:22:03.398Z,100660.54
2019-04-10T08:24:34.387Z,100660.13
2019-04-10T08:27:04.003Z,100666.58
2019-04-10T08:29:34.303Z,100666.44
2019-04-10T08:32:03.869Z,100671.73
2019-04-10T08:34:33.615Z,100669.12
2019-04-10T08:37:03.811Z,100671.23
2019-04-10T08:39:40.261Z,100671.02
2019-04-10T08:42:04.729Z,100664.66
2019-04-10T08:44:34.105Z,100666.71
2019-04-10T08:47:03.513Z,100662.60
2019-04-10T08:49:32.807Z,100671.63
2019-04-10T08:52:02.601Z,100671.74
2019-04-10T08:54:32.251Z,100677.42
2019-04-10T08:57:03.230Z,100676.36
2019-04-10T08:59:33.934Z,100671.42
2019-04-10T09:02:04.234Z,100676.42
2019-04-10T09:04:33.664Z,100676.73
2019-04-10T09:07:04.236Z,100673.94
2019-04-10T09:09:34.529Z,100673.38
2019-04-10T09:12:05.242Z,100673.89
2019-04-10T09:14:35.062Z,100666.37
2019-04-10T09:17:04.884Z,100670.59
2019-04-10T09:19:34.322Z,100668.44
2019-04-10T09:22:04.242Z,100663.28
2019-04-10T09:24:34.150Z,100668.25
2019-04-10T09:27:04.691Z,100664.52
2019-04-10T09:29:34.367Z,100658.13
2019-04-10T09:32:04.478Z,100662.68
2019-04-10T09:34:34.070Z,100658.29
2019-04-10T09:37:03.947Z,100654.92
2019-04-10T09:39:33.819Z,100649.05
2019-04-10T09:42:03.517Z,100651.62
2019-04-10T09:44:33.240Z,100641.33
2019-04-10T09:47:02.610Z,100644.91
2019-04-10T09:49:38.940Z,100642.20
2019-04-10T09:52:03.390Z,100648.52
2019-04-10T09:54:32.979Z,100648.13
2019-04-10T09:57:03.341Z,100641.19
2019-04-10T09:59:36.919Z,100638.98
2019-04-10T10:02:04.295Z,100646.38
2019-04-10T10:04:33.754Z,100643.98
2019-04-10T10:07:03.964Z,100640.19
2019-04-10T10:09:34.632Z,100641.81
2019-04-10T10:12:05.915Z,100639.97
2019-04-10T10:14:35.857Z,100641.25
2019-04-10T10:17:06.430Z,100639.53
2019-04-10T10:19:36.372Z,100642.07
2019-04-10T10:22:06.553Z,100635.04
2019-04-10T10:24:37.176Z,100637.23
2019-04-10T10:27:07.656Z,100637.09
2019-04-10T10:29:37.628Z,100634.57
2019-04-10T10:32:07.189Z,100642.10
2019-04-10T10:34:36.746Z,100640.30
2019-04-10T10:37:06.597Z,100640.52
2019-04-10T10:39:37.043Z,100640.86
2019-04-10T10:42:07.605Z,100642.52
2019-04-10T10:44:38.341Z,100646.03
2019-04-10T10:47:08.369Z,100642.67
2019-04-10T10:49:38.166Z,100647.73
2019-04-10T10:52:07.564Z,100643.52
2019-04-10T10:54:37.038Z,100641.70
2019-04-10T10:57:06.944Z,100639.75
2019-04-10T10:59:37.645Z,100634.15
2019-04-10T11:02:08.466Z,100633.78
2019-04-10T11:04:38.012Z,100630.73
2019-04-10T11:07:07.320Z,100622.95
2019-04-10T11:09:37.685Z,100632.00
2019-04-10T11:12:07.077Z,100631.77
2019-04-10T11:14:37.137Z,100633.69
2019-04-10T11:17:06.942Z,100629.50
2019-04-10T11:19:37.118Z,100624.64
2019-04-10T11:22:07.429Z,100630.30
2019-04-10T11:24:38.247Z,100645.07
2019-04-10T11:27:09.898Z,100637.52
2019-04-10T11:29:39.140Z,100638.80
2019-04-10T11:32:09.511Z,100645.34
2019-04-10T11:34:40.596Z,100640.45
2019-04-10T11:37:24.206Z,100644.64
2019-04-10T11:39:43.411Z,100643.73
2019-04-10T11:42:12.222Z,100642.41
2019-04-10T11:44:45.155Z,100640.62
2019-04-10T11:47:12.778Z,100638.32
2019-04-10T11:49:43.969Z,100643.03
2019-04-10T11:52:14.485Z,100639.81
2019-04-10T11:54:46.082Z,100640.76
2019-04-10T11:57:16.648Z,100645.84
2019-04-10T11:59:48.831Z,100635.84
2019-04-10T12:02:21.824Z,100640.09
2019-04-10T12:04:56.985Z,100639.81
2019-04-10T12:12:22.456Z,100638.38
2019-04-10T12:14:52.070Z,100640.31
2019-04-10T12:17:22.169Z,100648.13
2019-04-10T12:19:52.111Z,100640.90
2019-04-10T12:22:21.703Z,100641.22
2019-04-10T12:24:51.607Z,100643.59
2019-04-10T12:27:21.105Z,100645.55
2019-04-10T12:29:50.991Z,100643.98
2019-04-10T12:32:20.916Z,100644.63
2019-04-10T12:34:50.820Z,100651.49
2019-04-10T12:37:21.117Z,100648.00
2019-04-10T12:39:50.420Z,100648.14
2019-04-10T12:42:20.275Z,100646.72
2019-04-10T12:44:49.576Z,100644.67
2019-04-10T12:47:18.892Z,100648.33
2019-04-10T12:49:48.179Z,100642.36
2019-04-10T12:52:18.462Z,100648.22
2019-04-10T12:54:49.102Z,100647.89
2019-04-10T12:57:19.762Z,100645.94
2019-04-10T12:59:49.913Z,100650.18
2019-04-10T13:02:20.500Z,100648.53
2019-04-10T13:04:49.967Z,100648.66
2019-04-10T13:07:19.337Z,100645.18
2019-04-10T13:09:48.775Z,100643.62
2019-04-10T13:12:18.096Z,100639.36
2019-04-10T13:14:48.596Z,100639.04
2019-04-10T13:17:20.043Z,100639.01
2019-04-10T13:19:49.286Z,100635.72
2019-04-10T13:22:18.682Z,100634.52
2019-04-10T13:24:48.078Z,100630.43
2019-04-10T13:27:17.407Z,100634.02
2019-04-10T13:29:46.764Z,100631.02
2019-04-10T13:32:16.948Z,100632.03
2019-04-10T13:34:47.106Z,100625.19
2019-04-10T13:37:16.437Z,100625.22
2019-04-10T13:39:46.810Z,100622.52
2019-04-10T13:42:16.860Z,100615.22
2019-04-10T13:44:46.726Z,100621.57
2019-04-10T13:47:17.440Z,100621.41
2019-04-10T13:49:48.367Z,100622.88
2019-04-10T13:52:18.322Z,100627.45
2019-04-10T13:54:47.746Z,100630.31
2019-04-10T13:57:17.961Z,100622.98
2019-04-10T13:59:47.525Z,100619.59
2019-04-10T14:02:18.458Z,100622.30
2019-04-10T14:04:47.842Z,100618.68
2019-04-10T14:07:17.983Z,100624.65
2019-04-10T14:09:51.201Z,100619.84
2019-04-10T14:12:18.671Z,100621.23
2019-04-10T14:14:48.867Z,100619.41
2019-04-10T14:17:19.514Z,100622.34
2019-04-10T14:19:49.824Z,100619.30
2019-04-10T14:22:19.721Z,100619.70
2019-04-10T14:24:50.562Z,100624.14
2019-04-10T14:27:24.514Z,100625.09
2019-04-10T14:29:54.595Z,100621.17
2019-04-10T14:32:26.018Z,100625.10
2019-04-10T14:34:55.681Z,100621.30
2019-04-10T14:37:25.718Z,100617.07
2019-04-10T14:39:55.739Z,100622.16
2019-04-10T14:42:26.625Z,100623.53
2019-04-10T14:44:57.152Z,100633.86
2019-04-10T14:47:27.625Z,100634.90
2019-04-10T14:49:58.023Z,100634.41
2019-04-10T14:52:27.651Z,100634.38
2019-04-10T14:54:57.036Z,100636.86
2019-04-10T14:57:26.644Z,100638.02
2019-04-10T14:59:56.198Z,100640.54
2019-04-10T15:02:26.351Z,100643.70
2019-04-10T15:04:55.925Z,100639.48
2019-04-10T15:07:25.252Z,100640.92
2019-04-10T15:09:54.543Z,100642.50
2019-04-10T15:12:24.694Z,100637.70
2019-04-10T15:14:54.195Z,100643.01
2019-04-10T15:17:23.538Z,100645.62
2019-04-10T15:19:53.715Z,100642.43
2019-04-10T15:22:23.517Z,100641.09
2019-04-10T15:24:53.889Z,100646.95
2019-04-10T15:27:23.345Z,100644.49
2019-04-10T15:29:52.669Z,100648.84
2019-04-10T15:32:22.384Z,100648.68
2019-04-10T15:34:52.274Z,100653.53
2019-04-10T15:37:22.675Z,100653.20
2019-04-10T15:39:52.361Z,100653.69
2019-04-10T15:42:21.811Z,100657.67
2019-04-10T15:44:51.374Z,100654.97
2019-04-10T15:47:23.156Z,100654.66
2019-04-10T15:49:51.832Z,100659.00
2019-04-10T15:52:21.180Z,100660.84
2019-04-10T15:54:53.313Z,100657.66
2019-04-10T15:57:22.678Z,100668.70
2019-04-10T15:59:52.527Z,100667.98
2019-04-10T16:02:23.736Z,100657.66
2019-04-10T16:04:53.394Z,100665.34
2019-04-10T16:07:22.813Z,100670.73
2019-04-10T16:09:56.194Z,100675.67
2019-04-10T16:12:25.610Z,100677.86
2019-04-10T16:14:55.270Z,100674.25
2019-04-10T16:17:26.250Z,100681.55
2019-04-10T16:20:06.123Z,100678.80
2019-04-10T16:22:40.534Z,100691.95
2019-04-10T16:25:12.091Z,100696.38
2019-04-10T16:27:41.450Z,100693.77
2019-04-10T16:30:12.781Z,100697.92
2019-04-10T16:32:42.419Z,100702.42
2019-04-10T16:35:13.561Z,100708.25
2019-04-10T16:37:43.972Z,100710.72
2019-04-10T16:40:14.849Z,100713.80
2019-04-10T16:42:44.490Z,100714.27
2019-04-10T16:45:15.750Z,100711.47
2019-04-10T16:47:46.055Z,100718.00
2019-04-10T16:50:15.803Z,100715.44
2019-04-10T16:52:45.300Z,100723.69
2019-04-10T16:55:15.667Z,100728.23
2019-04-10T16:57:45.432Z,100732.68
2019-04-10T17:00:17.092Z,100733.55
2019-04-10T17:02:46.920Z,100729.36
2019-04-10T17:05:16.533Z,100733.16
2019-04-10T17:07:47.392Z,100738.12
2019-04-10T17:10:23.022Z,100735.48
2019-04-10T17:12:49.779Z,100738.18
2019-04-10T17:15:19.773Z,100737.78
2019-04-10T17:17:49.076Z,100741.20
2019-04-10T17:20:18.469Z,100743.36
2019-04-10T17:22:49.723Z,100743.44
2019-04-10T17:25:20.172Z,100745.02
2019-04-10T17:27:50.065Z,100754.95
2019-04-10T17:30:20.005Z,100754.98
2019-04-10T17:32:49.849Z,100759.11
2019-04-10T17:35:19.617Z,100760.75
2019-04-10T17:37:49.926Z,100760.91
2019-04-10T17:40:30.015Z,100765.73
2019-04-10T17:42:52.643Z,100771.41
2019-04-10T17:45:23.076Z,100781.33
2019-04-10T17:47:54.612Z,100782.72
2019-04-10T17:50:24.633Z,100793.45
2019-04-10T17:52:54.332Z,100798.55
2019-04-10T17:55:23.677Z,100798.55
2019-04-10T17:57:55.768Z,100801.98
2019-04-10T18:00:27.154Z,100809.06
2019-04-10T18:02:57.210Z,100813.16
2019-04-10T18:05:26.756Z,100810.28
2019-04-10T18:07:56.631Z,100816.33
2019-04-10T18:10:30.440Z,100821.20
2019-04-10T18:12:57.666Z,100826.73
2019-04-10T18:15:28.406Z,100834.70
2019-04-10T18:17:57.799Z,100824.50
2019-04-10T18:20:28.183Z,100829.45
2019-04-10T18:22:58.749Z,100834.19
2019-04-10T18:25:28.265Z,100845.52
2019-04-10T18:27:57.591Z,100847.04
2019-04-10T18:30:27.977Z,100858.30
2019-04-10T18:32:58.173Z,100861.22
2019-04-10T18:35:28.846Z,100872.80
2019-04-10T18:37:59.695Z,100866.33
2019-04-10T18:40:30.002Z,100874.73
2019-04-10T18:43:00.612Z,100885.08
2019-04-10T18:45:31.806Z,100884.61
2019-04-10T18:48:01.052Z,100896.41
2019-04-10T18:50:30.409Z,100899.38
2019-04-10T18:52:59.767Z,100912.63
2019-04-10T18:55:30.094Z,100914.38
2019-04-10T18:58:00.151Z,100922.66
2019-04-10T19:00:36.869Z,100918.11
2019-04-10T19:03:23.558Z,100928.24
2019-04-10T19:06:07.949Z,100933.48
2019-04-10T19:08:37.658Z,100934.82
2019-04-10T19:11:17.559Z,100940.33
2019-04-10T19:13:38.556Z,100944.69
2019-04-10T19:16:08.916Z,100949.14
2019-04-10T19:18:39.544Z,100950.92
2019-04-10T19:21:09.168Z,100953.03
2019-04-10T19:23:39.370Z,100958.29
2019-04-10T19:26:11.331Z,100959.69
2019-04-10T19:28:43.422Z,100965.11
2019-04-10T19:31:23.040Z,100958.41
2019-04-10T19:33:51.832Z,100964.15
2019-04-10T19:36:25.871Z,100961.94
2019-04-10T19:38:55.902Z,100969.94
2019-04-10T19:41:32.799Z,100977.47
2019-04-10T19:43:56.845Z,100977.47
2019-04-10T19:46:26.630Z,100980.44
2019-04-10T19:48:56.144Z,100982.35
2019-04-10T19:51:25.828Z,100988.73
2019-04-10T19:53:55.527Z,100993.08
2019-04-10T19:56:25.187Z,100956.69
2019-04-10T19:58:55.168Z,100998.70
2019-04-10T20:01:28.559Z,100999.55
2019-04-10T20:03:56.455Z,101001.67
2019-04-10T20:06:25.865Z,101003.52
2019-04-10T20:08:55.815Z,101004.60
2019-04-10T20:11:35.651Z,101003.20
2019-04-10T20:13:57.626Z,101008.47
2019-04-10T20:16:27.618Z,101012.83
2019-04-10T20:18:57.491Z,101021.94
2019-04-10T20:21:27.811Z,101021.94
2019-04-10T20:23:58.569Z,101017.01
2019-04-10T20:26:28.003Z,101023.86
2019-04-10T20:28:59.100Z,101028.68
2019-04-10T20:31:31.146Z,101034.09
2019-04-10T20:34:03.317Z,101033.61
2019-04-10T20:36:33.208Z,101033.61
2019-04-10T20:39:05.956Z,101041.20
2019-04-10T20:41:47.614Z,101041.31
2019-04-10T20:44:07.254Z,101046.82
2019-04-10T20:46:38.099Z,101053.31
2019-04-10T20:49:08.549Z,101055.72
2019-04-10T20:51:37.802Z,101053.67
2019-04-10T20:54:07.086Z,101055.47
2019-04-10T20:56:36.929Z,101063.36
2019-04-10T20:59:07.648Z,101063.36
2019-04-10T21:01:37.541Z,101065.85
2019-04-10T21:04:07.350Z,101066.97
2019-04-10T21:06:39.489Z,101080.22
2019-04-10T21:09:09.769Z,101083.36
2019-04-10T21:11:39.853Z,101086.97
2019-04-10T21:14:09.484Z,101087.84
2019-04-10T21:16:40.001Z,101091.09
2019-04-10T21:19:11.016Z,101084.58
2019-04-10T21:21:41.340Z,101089.91
2019-04-10T21:24:11.434Z,101097.13
2019-04-10T21:26:40.980Z,101095.00
2019-04-10T21:29:12.788Z,101099.04
2019-04-10T21:31:53.074Z,101102.92
2019-04-10T21:34:32.815Z,101110.32
2019-04-10T21:37:03.722Z,101114.31
2019-04-10T21:39:33.950Z,101115.82
2019-04-10T21:42:14.832Z,101124.87
2019-04-10T21:44:37.188Z,101121.37
2019-04-10T21:47:06.579Z,101120.34
2019-04-10T21:49:36.062Z,101122.05
2019-04-10T21:52:05.776Z,101131.48
2019-04-10T21:54:35.379Z,101117.28
2019-04-10T21:57:05.485Z,101132.19
2019-04-10T21:59:34.967Z,101132.19
2019-04-10T22:02:05.391Z,101129.19
2019-04-10T22:04:35.007Z,101129.19
2019-04-10T22:07:20.289Z,101133.06
2019-04-10T22:10:09.900Z,101139.51
2019-04-10T22:12:43.790Z,101167.14
2019-04-10T22:15:28.785Z,101141.83
2019-04-10T22:17:58.943Z,101149.21
2019-04-10T22:20:29.671Z,101149.21
2019-04-10T22:22:59.797Z,101150.31
2019-04-10T22:25:29.838Z,101148.86
2019-04-10T22:28:00.476Z,101151.61
2019-04-10T22:30:30.120Z,101151.55
2019-04-10T22:32:59.824Z,101155.89
2019-04-10T22:35:29.372Z,101155.89
2019-04-10T22:37:58.652Z,101151.30
2019-04-10T22:40:29.050Z,101151.30
2019-04-10T22:42:59.561Z,101157.91
2019-04-10T22:45:32.674Z,101162.02
2019-04-10T22:48:02.432Z,101161.44
2019-04-10T22:50:31.825Z,101157.67
2019-04-10T22:53:01.638Z,101157.27
2019-04-10T22:55:31.921Z,101157.42
2019-04-10T22:58:02.463Z,101159.16
2019-04-10T23:00:32.815Z,101159.16
2019-04-10T23:03:03.129Z,101165.16
2019-04-10T23:05:32.808Z,101161.28
2019-04-10T23:08:03.332Z,101172.27
2019-04-10T23:10:33.220Z,101172.27
2019-04-10T23:13:05.377Z,101169.44
2019-04-10T23:15:33.692Z,101173.02
2019-04-10T23:18:03.465Z,101166.41
2019-04-10T23:20:34.063Z,101170.52
2019-04-10T23:23:03.646Z,101166.98
2019-04-10T23:25:34.218Z,101166.98
2019-04-10T23:28:03.632Z,101162.47
2019-04-10T23:30:33.109Z,101176.20
2019-04-10T23:33:02.387Z,101177.97
2019-04-10T23:35:31.718Z,101173.08
2019-04-10T23:38:01.498Z,101178.55
2019-04-10T23:40:31.312Z,101187.46
2019-04-10T23:43:09.671Z,101182.77
2019-04-10T23:45:31.697Z,101183.38
2019-04-10T23:48:01.016Z,101184.21
2019-04-10T23:50:30.453Z,101179.61
2019-04-10T23:53:00.339Z,101187.13
2019-04-10T23:55:30.228Z,101187.78
2019-04-10T23:58:00.024Z,101184.98
